createdAt,value
2019-04-16T00:02:03.970Z,16.07
2019-04-16T00:04:46.879Z,16.60
2019-04-16T00:07:17.823Z,16.97
2019-04-16T00:09:42.906Z,15.23
2019-04-16T00:12:14.053Z,16.17
2019-04-16T00:14:39.116Z,15.97
2019-04-16T00:17:02.578Z,14.75
2019-04-16T00:19:26.034Z,14.93
2019-04-16T00:22:02.782Z,15.80
2019-04-16T00:24:33.805Z,15.43
2019-04-16T00:26:59.310Z,15.03
2019-04-16T00:29:22.402Z,19.13
2019-04-16T00:31:47.488Z,17.00
2019-04-16T00:34:13.420Z,16.33
2019-04-16T00:36:36.095Z,17.33
2019-04-16T00:38:59.521Z,19.13
2019-04-16T00:41:23.232Z,15.73
2019-04-16T00:43:46.694Z,17.47
2019-04-16T00:46:11.467Z,16.00
2019-04-16T00:48:35.300Z,15.90
2019-04-16T00:50:58.765Z,15.07
2019-04-16T00:53:22.231Z,18.10
2019-04-16T00:55:45.854Z,14.53
2019-04-16T00:58:09.304Z,16.93
2019-04-16T01:00:32.721Z,16.77
2019-04-16T01:02:56.485Z,17.13
2019-04-16T01:05:19.905Z,16.90
2019-04-16T01:07:43.347Z,14.80
2019-04-16T01:10:07.352Z,16.80
2019-04-16T01:12:30.794Z,15.97
2019-04-16T01:14:58.902Z,17.00
2019-04-16T01:17:19.722Z,17.00
2019-04-16T01:19:43.179Z,15.63
2019-04-16T01:22:06.646Z,17.87
2019-04-16T01:24:30.174Z,14.13
2019-04-16T01:26:55.420Z,16.23
2019-04-16T01:29:18.785Z,15.87
2019-04-16T01:31:55.943Z,17.33
2019-04-16T01:34:26.798Z,14.40
2019-04-16T01:37:08.159Z,14.63
2019-04-16T01:39:36.135Z,15.00
2019-04-16T01:41:59.755Z,14.93
2019-04-16T01:44:23.201Z,14.67
2019-04-16T01:46:46.915Z,15.17
2019-04-16T01:49:11.484Z,16.07
2019-04-16T01:51:37.757Z,16.10
2019-04-16T01:54:00.473Z,16.37
2019-04-16T01:56:27.794Z,16.07
2019-04-16T01:58:49.038Z,16.43
2019-04-16T02:01:12.493Z,14.13
2019-04-16T02:03:35.948Z,15.33
2019-04-16T02:05:59.370Z,14.60
2019-04-16T02:08:22.826Z,16.83
2019-04-16T02:10:46.295Z,16.50
2019-04-16T02:13:14.526Z,17.10
2019-04-16T02:15:37.571Z,15.43
2019-04-16T02:18:00.333Z,16.00
2019-04-16T02:20:24.000Z,15.37
2019-04-16T02:22:47.469Z,14.87
2019-04-16T02:25:11.222Z,17.83
2019-04-16T02:27:34.855Z,16.07
2019-04-16T02:29:58.579Z,14.63
2019-04-16T02:32:23.471Z,15.77
2019-04-16T02:34:46.890Z,16.00
2019-04-16T02:37:10.442Z,17.47
2019-04-16T02:39:47.827Z,16.80
2019-04-16T02:41:59.036Z,15.47
2019-04-16T02:44:22.503Z,15.20
2019-04-16T02:46:45.930Z,16.00
2019-04-16T02:49:09.393Z,17.03
2019-04-16T02:51:41.192Z,17.63
2019-04-16T02:54:12.676Z,16.83
2019-04-16T02:56:53.111Z,16.53
2019-04-16T02:59:29.733Z,14.57
2019-04-16T03:02:00.663Z,15.80
2019-04-16T03:04:27.003Z,15.50
2019-04-16T03:06:50.922Z,15.33
2019-04-16T03:09:14.346Z,17.13
2019-04-16T03:11:37.812Z,20.00
2019-04-16T03:14:01.229Z,20.70
2019-04-16T03:16:29.248Z,15.30
2019-04-16T03:18:56.774Z,17.37
2019-04-16T03:21:20.237Z,17.53
2019-04-16T03:23:43.694Z,13.60
2019-04-16T03:26:07.157Z,15.20
2019-04-16T03:28:30.578Z,15.07
2019-04-16T03:30:54.009Z,18.83
2019-04-16T03:33:17.487Z,15.27
2019-04-16T03:35:40.940Z,15.80
2019-04-16T03:38:05.315Z,13.83
2019-04-16T03:40:29.614Z,17.20
2019-04-16T03:42:53.042Z,17.33
2019-04-16T03:45:16.519Z,17.12
2019-04-16T03:47:39.988Z,16.27
2019-04-16T03:50:04.586Z,18.03
2019-04-16T03:52:28.274Z,17.93
2019-04-16T03:54:54.123Z,15.43
2019-04-16T03:57:16.899Z,16.43
2019-04-16T03:59:40.785Z,16.83
2019-04-16T04:02:04.521Z,16.00
2019-04-16T04:04:29.211Z,19.57
2019-04-16T04:06:53.162Z,16.50
2019-04-16T04:09:18.863Z,16.07
2019-04-16T04:11:41.981Z,18.07
2019-04-16T04:14:05.490Z,17.57
2019-04-16T04:16:30.540Z,15.93
2019-04-16T04:18:54.143Z,19.63
2019-04-16T04:21:20.946Z,21.68
2019-04-16T04:23:42.759Z,18.63
2019-04-16T04:26:08.911Z,25.50
2019-04-16T04:28:31.379Z,15.97
2019-04-16T04:30:57.720Z,16.03
2019-04-16T04:33:40.358Z,16.10
2019-04-16T04:36:00.781Z,16.03
2019-04-16T04:38:24.257Z,14.90
2019-04-16T04:40:50.475Z,14.93
2019-04-16T04:43:12.861Z,14.67
2019-04-16T04:45:37.621Z,16.33
2019-04-16T04:48:01.465Z,18.83
2019-04-16T04:50:24.918Z,16.40
2019-04-16T04:52:48.375Z,18.33
2019-04-16T04:55:11.802Z,18.27
2019-04-16T04:57:35.259Z,16.93
2019-04-16T04:59:58.680Z,18.23
2019-04-16T05:02:22.150Z,13.70
2019-04-16T05:04:53.303Z,14.80
2019-04-16T05:07:18.350Z,16.48
2019-04-16T05:09:41.778Z,14.57
2019-04-16T05:12:08.119Z,18.10
2019-04-16T05:14:31.032Z,16.70
2019-04-16T05:16:54.731Z,17.13
2019-04-16T05:19:18.144Z,16.20
2019-04-16T05:21:41.676Z,17.77
2019-04-16T05:24:05.097Z,17.70
2019-04-16T05:26:28.551Z,13.60
2019-04-16T05:28:51.968Z,16.73
2019-04-16T05:31:15.688Z,20.37
2019-04-16T05:33:39.385Z,23.23
2019-04-16T05:36:02.843Z,21.17
2019-04-16T05:38:26.260Z,21.30
2019-04-16T05:40:49.717Z,20.97
2019-04-16T05:43:13.142Z,19.53
2019-04-16T05:45:37.652Z,20.37
2019-04-16T05:48:01.322Z,21.60
2019-04-16T05:50:28.522Z,21.27
2019-04-16T05:52:49.928Z,22.53
2019-04-16T05:55:27.020Z,22.10
2019-04-16T05:57:52.151Z,21.27
2019-04-16T06:00:17.495Z,19.10
2019-04-16T06:02:42.006Z,25.00
2019-04-16T06:05:06.704Z,27.70
2019-04-16T06:07:30.191Z,26.73
2019-04-16T06:09:53.579Z,23.30
2019-04-16T06:12:17.046Z,22.00
2019-04-16T06:14:49.568Z,22.17
2019-04-16T06:17:20.539Z,23.83
2019-04-16T06:20:00.359Z,22.63
2019-04-16T06:22:28.879Z,23.77
2019-04-16T06:24:57.879Z,22.17
2019-04-16T06:27:29.015Z,19.43
2019-04-16T06:30:10.258Z,19.87
2019-04-16T06:32:35.367Z,17.60
2019-04-16T06:35:16.614Z,17.37
2019-04-16T06:37:41.717Z,19.97
2019-04-16T06:40:11.320Z,16.87
2019-04-16T06:42:38.479Z,16.33
2019-04-16T06:45:04.910Z,18.67
2019-04-16T06:47:32.685Z,16.00
2019-04-16T06:49:57.746Z,14.93
2019-04-16T06:52:38.813Z,17.43
2019-04-16T06:55:12.847Z,15.67
2019-04-16T06:57:53.814Z,18.33
2019-04-16T07:00:24.482Z,17.20
2019-04-16T07:03:01.863Z,19.63
2019-04-16T07:05:24.726Z,20.47
2019-04-16T07:08:07.623Z,19.33
2019-04-16T07:10:44.074Z,19.43
2019-04-16T07:12:57.867Z,16.33
2019-04-16T07:15:24.217Z,21.97
2019-04-16T07:17:46.500Z,17.63
2019-04-16T07:20:13.199Z,18.73
2019-04-16T07:22:35.175Z,19.07
2019-04-16T07:25:03.829Z,17.20
2019-04-16T07:27:23.966Z,16.57
2019-04-16T07:29:51.961Z,16.83
2019-04-16T07:32:34.765Z,16.50
2019-04-16T07:35:15.924Z,15.97
2019-04-16T07:37:40.981Z,18.27
2019-04-16T07:40:24.897Z,19.35
2019-04-16T07:42:59.464Z,15.27
2019-04-16T07:45:36.247Z,13.57
2019-04-16T07:48:13.112Z,17.50
2019-04-16T07:50:38.202Z,14.97
2019-04-16T07:53:21.214Z,15.20
2019-04-16T07:55:48.993Z,14.50
2019-04-16T07:58:12.422Z,14.90
2019-04-16T08:00:40.157Z,12.73
2019-04-16T08:03:01.279Z,15.40
2019-04-16T08:05:27.606Z,14.23
2019-04-16T08:07:52.808Z,19.00
2019-04-16T08:10:16.926Z,14.10
2019-04-16T08:12:42.388Z,13.67
2019-04-16T08:15:13.881Z,16.37
2019-04-16T08:17:31.677Z,11.83
2019-04-16T08:19:55.989Z,16.83
2019-04-16T08:22:19.549Z,13.60
2019-04-16T08:24:44.579Z,17.43
2019-04-16T08:27:17.807Z,16.77
2019-04-16T08:29:38.710Z,15.73
2019-04-16T08:32:02.134Z,12.20
2019-04-16T08:34:25.608Z,12.80
2019-04-16T08:36:49.305Z,15.67
2019-04-16T08:39:14.523Z,18.50
2019-04-16T08:41:37.958Z,14.67
2019-04-16T08:44:03.771Z,12.43
2019-04-16T08:46:28.210Z,13.73
2019-04-16T08:48:54.299Z,16.30
2019-04-16T08:51:29.559Z,15.37
2019-04-16T08:53:43.810Z,12.47
2019-04-16T08:56:07.347Z,17.23
2019-04-16T08:58:30.809Z,16.07
2019-04-16T09:00:54.528Z,16.77
2019-04-16T09:03:17.966Z,14.30
2019-04-16T09:05:42.116Z,14.93
2019-04-16T09:08:13.003Z,13.83
2019-04-16T09:10:32.361Z,12.57
2019-04-16T09:13:04.002Z,12.83
2019-04-16T09:15:32.895Z,18.13
2019-04-16T09:17:58.297Z,15.50
2019-04-16T09:20:23.604Z,13.27
2019-04-16T09:22:49.297Z,16.20
2019-04-16T09:25:23.072Z,14.13
2019-04-16T09:27:48.164Z,15.73
2019-04-16T09:30:31.734Z,16.00
2019-04-16T09:33:00.727Z,14.43
2019-04-16T09:35:26.208Z,12.07
2019-04-16T09:38:00.217Z,15.47
2019-04-16T09:40:41.236Z,15.50
2019-04-16T09:43:16.529Z,12.87
2019-04-16T09:45:33.811Z,15.30
2019-04-16T09:47:57.026Z,15.60
2019-04-16T09:50:20.894Z,14.27
2019-04-16T09:52:44.367Z,15.50
2019-04-16T09:55:07.959Z,13.90
2019-04-16T09:57:32.396Z,20.07
2019-04-16T09:59:57.664Z,17.37
2019-04-16T10:02:22.736Z,14.30
2019-04-16T10:04:46.166Z,20.37
2019-04-16T10:07:15.089Z,12.60
2019-04-16T10:09:38.545Z,13.33
2019-04-16T10:12:04.944Z,13.20
2019-04-16T10:14:27.155Z,12.70
2019-04-16T10:16:53.275Z,14.07
2019-04-16T10:19:16.691Z,13.80
2019-04-16T10:21:40.255Z,13.17
2019-04-16T10:24:21.751Z,12.40
2019-04-16T10:26:46.824Z,11.57
2019-04-16T10:29:15.798Z,11.93
2019-04-16T10:31:39.403Z,12.30
2019-04-16T10:34:03.169Z,11.43
2019-04-16T10:36:26.602Z,16.87
2019-04-16T10:39:07.444Z,13.93
2019-04-16T10:41:35.268Z,13.67
2019-04-16T10:44:00.363Z,12.20
2019-04-16T10:46:31.519Z,11.47
2019-04-16T10:48:56.604Z,15.40
2019-04-16T10:51:24.391Z,11.67
2019-04-16T10:53:49.434Z,11.73
2019-04-16T10:56:20.755Z,12.43
2019-04-16T10:58:58.271Z,16.10
2019-04-16T11:01:35.354Z,11.50
2019-04-16T11:04:04.866Z,14.43
2019-04-16T11:06:33.276Z,12.13
2019-04-16T11:09:03.819Z,14.97
2019-04-16T11:11:27.832Z,13.63
2019-04-16T11:13:59.758Z,13.63
2019-04-16T11:16:17.400Z,14.13
2019-04-16T11:18:41.202Z,13.30
2019-04-16T11:21:05.119Z,12.83
2019-04-16T11:23:40.178Z,12.93
2019-04-16T11:26:13.663Z,14.03
2019-04-16T11:28:48.624Z,12.27
2019-04-16T11:31:22.645Z,12.70
2019-04-16T11:34:01.614Z,12.80
2019-04-16T11:36:35.677Z,11.97
2019-04-16T11:39:00.458Z,13.40
2019-04-16T11:41:23.912Z,14.10
2019-04-16T11:43:57.487Z,13.97
2019-04-16T11:46:30.022Z,11.57
2019-04-16T11:48:59.618Z,12.20
2019-04-16T11:51:34.485Z,12.23
2019-04-16T11:54:11.210Z,14.97
2019-04-16T11:56:33.336Z,12.20
2019-04-16T11:58:57.885Z,12.10
2019-04-16T12:01:28.962Z,10.95
2019-04-16T12:04:00.156Z,12.23
2019-04-16T12:06:40.106Z,11.93
2019-04-16T12:09:09.068Z,12.25
2019-04-16T12:11:53.168Z,13.33
2019-04-16T12:14:34.940Z,12.18
2019-04-16T12:17:16.157Z,11.60
2019-04-16T12:19:53.089Z,13.88
2019-04-16T12:22:18.503Z,11.77
2019-04-16T12:24:59.581Z,18.07
2019-04-16T12:27:33.722Z,12.30
2019-04-16T12:30:04.850Z,10.43
2019-04-16T12:32:39.426Z,11.55
2019-04-16T12:35:05.817Z,12.53
2019-04-16T12:37:49.335Z,11.43
2019-04-16T12:40:18.638Z,13.05
2019-04-16T12:42:46.801Z,11.90
2019-04-16T12:45:28.489Z,10.97
2019-04-16T12:48:01.727Z,11.48
2019-04-16T12:50:43.128Z,12.75
2019-04-16T12:53:17.624Z,12.00
2019-04-16T12:55:55.951Z,9.95
2019-04-16T12:58:26.697Z,11.90
2019-04-16T13:00:59.719Z,10.80
2019-04-16T13:03:36.662Z,11.75
2019-04-16T13:06:13.379Z,11.73
2019-04-16T13:08:53.384Z,12.28
2019-04-16T13:11:20.216Z,11.10
2019-04-16T13:13:54.061Z,10.93
2019-04-16T13:16:19.120Z,10.95
2019-04-16T13:19:00.422Z,11.12
2019-04-16T13:21:29.780Z,11.17
2019-04-16T13:24:06.446Z,11.70
2019-04-16T13:26:39.946Z,10.93
2019-04-16T13:29:05.928Z,11.57
2019-04-16T13:31:29.302Z,12.37
2019-04-16T13:34:00.893Z,11.43
2019-04-16T13:36:27.887Z,10.88
2019-04-16T13:38:59.622Z,10.50
2019-04-16T13:41:26.298Z,11.48
2019-04-16T13:44:09.911Z,11.25
2019-04-16T13:46:34.791Z,9.80
2019-04-16T13:49:05.309Z,12.00
2019-04-16T13:51:31.200Z,11.97
2019-04-16T13:54:00.860Z,10.58
2019-04-16T13:56:28.778Z,11.33
2019-04-16T13:59:02.367Z,8.93
2019-04-16T14:01:29.906Z,10.50
2019-04-16T14:03:56.081Z,11.70
2019-04-16T14:06:18.561Z,10.80
2019-04-16T14:08:42.003Z,12.18
2019-04-16T14:11:05.743Z,10.48
2019-04-16T14:13:29.216Z,11.30
2019-04-16T14:15:52.639Z,9.53
2019-04-16T14:18:16.062Z,9.45
2019-04-16T14:20:39.522Z,9.85
2019-04-16T14:23:03.158Z,9.30
2019-04-16T14:25:26.580Z,9.23
2019-04-16T14:27:50.301Z,8.85
2019-04-16T14:30:15.470Z,9.53
2019-04-16T14:32:38.906Z,12.00
2019-04-16T14:35:04.006Z,11.48
2019-04-16T14:37:27.440Z,8.53
2019-04-16T14:39:52.591Z,8.23
2019-04-16T14:42:16.016Z,8.53
2019-04-16T14:44:41.115Z,7.85
2019-04-16T14:47:04.603Z,9.20
2019-04-16T14:49:28.019Z,9.60
2019-04-16T14:51:51.482Z,7.08
2019-04-16T14:54:31.625Z,7.75
2019-04-16T14:56:57.348Z,7.62
2019-04-16T14:59:35.613Z,7.05
2019-04-16T15:02:03.102Z,6.28
2019-04-16T15:04:40.219Z,6.22
2019-04-16T15:07:04.071Z,7.92
2019-04-16T15:09:31.964Z,8.38
2019-04-16T15:12:12.085Z,7.78
2019-04-16T15:14:37.183Z,6.75
2019-04-16T15:17:14.146Z,6.80
2019-04-16T15:19:39.206Z,5.80
2019-04-16T15:22:20.590Z,6.70
2019-04-16T15:24:48.126Z,7.10
2019-04-16T15:27:31.693Z,7.27
2019-04-16T15:29:59.435Z,6.70
2019-04-16T15:32:27.561Z,6.92
2019-04-16T15:34:52.619Z,7.00
2019-04-16T15:37:17.691Z,32.60
2019-04-16T15:39:48.576Z,12.43
2019-04-16T15:42:17.446Z,6.95
2019-04-16T15:44:43.406Z,9.05
2019-04-16T15:47:24.362Z,7.92
2019-04-16T15:50:05.532Z,12.37
2019-04-16T15:52:46.829Z,7.87
2019-04-16T15:55:24.586Z,9.58
2019-04-16T15:58:07.801Z,6.25
2019-04-16T16:00:48.169Z,8.88
2019-04-16T16:03:27.973Z,8.90
2019-04-16T16:06:10.614Z,9.78
2019-04-16T16:08:41.823Z,8.00
2019-04-16T16:11:22.061Z,9.05
2019-04-16T16:13:45.810Z,7.00
2019-04-16T16:16:10.414Z,8.00
2019-04-16T16:18:35.762Z,9.33
2019-04-16T16:20:59.903Z,11.50
2019-04-16T16:23:23.376Z,9.35
2019-04-16T16:25:47.781Z,10.55
2019-04-16T16:28:11.276Z,9.70
2019-04-16T16:30:34.738Z,78.70
2019-04-16T16:32:58.179Z,47.53
2019-04-16T16:35:21.650Z,9.23
2019-04-16T16:37:45.191Z,10.23
2019-04-16T16:40:12.055Z,9.95
2019-04-16T16:42:34.184Z,9.90
2019-04-16T16:44:58.297Z,10.32
2019-04-16T16:47:24.450Z,9.97
2019-04-16T16:49:47.873Z,13.03
2019-04-16T16:52:24.746Z,9.90
2019-04-16T16:54:49.843Z,9.65
2019-04-16T16:57:14.906Z,10.08
2019-04-16T16:59:40.013Z,9.33
2019-04-16T17:02:10.748Z,10.58
2019-04-16T17:04:35.839Z,10.58
2019-04-16T17:06:59.296Z,9.18
2019-04-16T17:09:29.756Z,10.25
2019-04-16T17:11:55.682Z,9.65
2019-04-16T17:14:17.369Z,11.88
2019-04-16T17:16:40.799Z,9.53
2019-04-16T17:19:04.268Z,10.82
2019-04-16T17:21:27.726Z,9.70
2019-04-16T17:23:51.415Z,11.18
2019-04-16T17:26:16.065Z,8.80
2019-04-16T17:28:40.294Z,9.70
2019-04-16T17:31:05.926Z,10.40
2019-04-16T17:33:29.318Z,8.03
2019-04-16T17:35:52.740Z,11.50
2019-04-16T17:38:16.411Z,15.37
2019-04-16T17:40:44.150Z,9.97
2019-04-16T17:43:13.835Z,9.93
2019-04-16T17:45:50.949Z,10.13
2019-04-16T17:48:21.016Z,11.23
2019-04-16T17:50:45.819Z,8.63
2019-04-16T17:53:15.901Z,21.50
2019-04-16T17:55:49.366Z,10.40
2019-04-16T18:03:30.507Z,11.77
2019-04-16T18:05:58.412Z,10.77
2019-04-16T18:09:11.317Z,8.93
2019-04-16T18:11:41.018Z,9.27
2019-04-16T18:14:11.009Z,12.87
2019-04-16T18:16:32.886Z,9.40
2019-04-16T18:18:57.946Z,11.67
2019-04-16T18:21:26.101Z,9.13
2019-04-16T18:23:59.836Z,10.00
2019-04-16T18:26:33.579Z,10.50
2019-04-16T18:29:01.028Z,9.57
2019-04-16T18:31:37.241Z,12.40
2019-04-16T18:34:11.010Z,10.93
2019-04-16T18:36:36.069Z,11.17
2019-04-16T18:39:05.360Z,9.60
2019-04-16T18:41:42.004Z,14.83
2019-04-16T18:44:15.775Z,11.37
2019-04-16T18:46:40.881Z,11.07
2019-04-16T18:49:06.353Z,10.27
2019-04-16T18:51:32.860Z,11.67
2019-04-16T18:53:54.889Z,11.63
2019-04-16T18:56:18.307Z,14.80
2019-04-16T18:58:42.017Z,14.83
2019-04-16T19:01:10.131Z,15.55
2019-04-16T19:03:33.605Z,16.80
2019-04-16T19:05:57.279Z,15.97
2019-04-16T19:08:20.744Z,16.37
2019-04-16T19:10:44.606Z,16.80
2019-04-16T19:13:11.269Z,14.67
2019-04-16T19:15:33.273Z,14.83
2019-04-16T19:17:56.760Z,13.57
2019-04-16T19:20:20.182Z,14.87
2019-04-16T19:22:46.499Z,13.67
2019-04-16T19:25:09.450Z,14.13
2019-04-16T19:27:32.809Z,11.17
2019-04-16T19:29:56.302Z,11.63
2019-04-16T19:32:19.702Z,11.93
2019-04-16T19:34:43.158Z,12.20
2019-04-16T19:37:06.609Z,13.70
2019-04-16T19:39:30.035Z,12.30
2019-04-16T19:41:57.164Z,12.43
2019-04-16T19:44:18.688Z,12.23
2019-04-16T19:46:42.236Z,12.50
2019-04-16T19:49:05.939Z,12.80
2019-04-16T19:51:29.363Z,12.40
2019-04-16T19:53:53.153Z,13.73
2019-04-16T19:56:18.515Z,12.77
2019-04-16T19:58:44.228Z,14.57
2019-04-16T20:01:07.017Z,14.77
2019-04-16T20:03:31.347Z,13.13
2019-04-16T20:05:54.991Z,15.37
2019-04-16T20:08:18.420Z,17.60
2019-04-16T20:10:42.122Z,16.60
2019-04-16T20:13:05.549Z,16.70
2019-04-16T20:15:29.002Z,15.93
2019-04-16T20:17:52.422Z,16.27
2019-04-16T20:20:16.052Z,15.13
2019-04-16T20:22:39.468Z,15.00
2019-04-16T20:25:03.360Z,15.43
2019-04-16T20:27:26.907Z,22.13
2019-04-16T20:29:50.368Z,30.23
2019-04-16T20:32:13.833Z,22.73
2019-04-16T20:34:37.263Z,21.13
2019-04-16T20:37:00.985Z,19.50
2019-04-16T20:39:24.481Z,17.97
2019-04-16T20:41:52.818Z,17.73
2019-04-16T20:44:14.267Z,15.40
2019-04-16T20:46:37.945Z,15.97
2019-04-16T20:49:08.788Z,18.33
2019-04-16T20:51:27.339Z,15.47
2019-04-16T20:53:50.776Z,17.10
2019-04-16T20:56:19.958Z,15.57
2019-04-16T20:58:39.392Z,14.70
2019-04-16T21:01:03.746Z,15.40
2019-04-16T21:03:30.809Z,15.00
2019-04-16T21:05:58.859Z,16.27
2019-04-16T21:08:24.059Z,15.33
2019-04-16T21:10:42.680Z,16.87
2019-04-16T21:13:06.112Z,18.33
2019-04-16T21:15:29.572Z,15.53
2019-04-16T21:17:53.256Z,17.27
2019-04-16T21:20:19.533Z,20.57
2019-04-16T21:22:41.843Z,21.03
2019-04-16T21:25:06.245Z,24.20
2019-04-16T21:27:30.735Z,17.53
2019-04-16T21:29:54.179Z,26.07
2019-04-16T21:32:24.997Z,24.93
2019-04-16T21:34:50.077Z,20.77
2019-04-16T21:37:21.177Z,22.07
2019-04-16T21:39:58.021Z,24.40
2019-04-16T21:42:21.480Z,17.27
2019-04-16T21:44:45.484Z,18.30
2019-04-16T21:47:08.915Z,21.93
2019-04-16T21:49:38.748Z,18.00
2019-04-16T21:52:09.288Z,16.70
2019-04-16T21:54:32.703Z,13.60
2019-04-16T21:56:56.410Z,19.77
2019-04-16T21:59:21.359Z,15.83
2019-04-16T22:01:46.087Z,15.60
2019-04-16T22:04:14.454Z,19.27
2019-04-16T22:06:36.322Z,17.57
2019-04-16T22:09:03.462Z,19.33
2019-04-16T22:11:24.948Z,24.77
2019-04-16T22:13:50.662Z,18.03
2019-04-16T22:16:13.558Z,19.87
2019-04-16T22:18:37.565Z,19.03
2019-04-16T22:21:02.123Z,17.07
2019-04-16T22:23:25.835Z,17.67
2019-04-16T22:25:49.502Z,18.23
2019-04-16T22:28:13.111Z,17.83
2019-04-16T22:30:36.577Z,20.37
2019-04-16T22:33:04.919Z,17.80
2019-04-16T22:35:25.437Z,18.53
2019-04-16T22:37:48.911Z,18.67
2019-04-16T22:40:14.036Z,20.37
2019-04-16T22:42:39.130Z,16.60
2019-04-16T22:45:06.954Z,19.67
2019-04-16T22:47:35.087Z,18.17
2019-04-16T22:50:13.865Z,17.57
2019-04-16T22:52:23.675Z,18.73
2019-04-16T22:54:52.113Z,16.83
2019-04-16T22:57:13.643Z,18.03
2019-04-16T22:59:39.425Z,16.97
2019-04-16T23:02:03.997Z,16.53
2019-04-16T23:04:27.459Z,16.27
2019-04-16T23:06:51.129Z,18.30
2019-04-16T23:09:17.022Z,18.67
2019-04-16T23:11:39.730Z,16.63
2019-04-16T23:14:04.161Z,18.30
2019-04-16T23:16:27.632Z,20.67
2019-04-16T23:18:51.058Z,19.50
2019-04-16T23:21:14.529Z,18.43
2019-04-16T23:23:38.195Z,19.03
2019-04-16T23:26:01.641Z,18.07
2019-04-16T23:28:25.054Z,17.80
2019-04-16T23:30:51.296Z,16.67
2019-04-16T23:33:13.661Z,18.50
2019-04-16T23:35:43.315Z,16.30
2019-04-16T23:38:02.218Z,17.70
2019-04-16T23:40:25.693Z,21.60
2019-04-16T23:42:59.834Z,22.20
2019-04-16T23:45:31.179Z,20.77
2019-04-16T23:47:57.225Z,20.97
2019-04-16T23:50:22.326Z,18.83
2019-04-16T23:52:50.324Z,21.47
2019-04-16T23:55:17.912Z,20.67
2019-04-16T23:58:01.131Z,21.87
